Terminal Aerodrome Forecast
Issued by NWS

Home | Current Version | Previous Version | Text Only | Print | Product List | Glossary On
Versions: 1 2 3 4 5 6 7 8 9 10 11 12 13 14 15
000
FTUS45 KVEF 230538
TAFVGT
TAF
KVGT 230538Z 2306/2406 VRB05KT P6SM SCT120
     FM231800 11006KT P6SM SCT120
     FM232100 15006KT P6SM SCT100 SCT120 PROB30 2322/2401 -TSRA
      BKN080CB
     FM240300 18006KT P6SM SCT120=

USA.gov is the U.S. government's official web portal to all federal, state and local government web resources and services.